Egremont, Massachusetts
Current Conditions -  °F | °C
As of 5:54 PM on Tuesday 25 Nov 2014 (Local Time) from KPSF Reporting Station
Clear Clear  
Wind Chill: 38°   Ceiling: Unl
Heat Index: 41°   Visibility: 10mi
Dew Point: 27°   Wind: 5mph
Humidity: 57%   Direction: 230°SW
Pressure: 29.97"   Gusts: NA
Location:  42.1779°N, 73.3332°W
Report Text: KPSF 252254Z AUTO 23004KT 10SM CLR 05/M03 A2997 RMK AO2 SLP143 T00501028
Loading
Personal Weather Stations






























Interactive Weather Map New forecast layout! Learn more

10-Day Weather Forecast

Advertisements
Track Severe Weather on mobile